Oakdale, Kentucky
Current Conditions -  °F | °C
As of 1:53 PM on Friday 31 Oct 2014 (Local Time) from KPAH Reporting Station
Scattered Clouds Scattered Clouds  
Wind Chill: 42°   Ceiling: Unl
Heat Index: 49°   Visibility: 10mi
Dew Point: 26°   Wind: 18mph
Humidity: 41%   Direction: 340°NNW
Pressure: 30.16"   Gusts: 29mph
Location:  37.0331°N, 88.716°W
Report Text: KPAH 311853Z 34016G25KT 10SM SCT055 09/M03 A3016 RMK AO2 PK WND 01030/1759 SLP211 T00941033
Loading
Personal Weather Stations






























Interactive Weather Map
Tropical Storm Tracking
New forecast layout! Learn more

10-Day Weather Forecast

Advertisements
Track Severe Weather on mobile